Time;durP1;ratioP1;P1;durP2;ratioP2;P2;SDS_P1;SDS_P2;PMS_P1;PMS_P2;Temp;Humidity;BMP_temperature;BMP_pressure;BME280_temperature;BME280_humidity;BME280_pressure;Samples;Min_cycle;Max_cycle;Signal;HPM_P1;HPM_P2
2022/11/21 00:00:43;;;;;;;;;;;;;;;-144.99;100.00;52562.25;5006455;28;20021;-73
2022/11/21 00:03:10;;;;;;;;;;;;;;;-144.99;100.00;52603.00;4993566;28;19969;-74
2022/11/21 00:05:39;;;;;;;;;;;;;;;-144.99;100.00;52598.94;4996642;28;19954;-74
2022/11/21 00:08:05;;;;;;;;;;;;;;;-144.99;100.00;52633.59;5000107;28;19943;-73
2022/11/21 00:10:33;;;;;;;;;;;;;;;-144.99;100.00;52590.78;4997903;28;19945;-75
2022/11/21 00:13:00;;;;;;;;;;;;;;;-144.99;100.00;52594.84;5008247;28;19985;-73
2022/11/21 00:15:26;;;;;;;;;;;;;;;-144.99;100.00;52574.47;4991979;28;19963;-72
2022/11/21 00:17:53;;;;;;;;;;;;;;;-144.99;100.00;52598.94;4995781;28;19986;-74
2022/11/21 00:20:20;;;;;;;;;;;;;;;-144.99;100.00;52578.53;4989034;28;19950;-74
2022/11/21 00:22:47;;;;;;;;;;;;;;;-144.99;100.00;52590.78;4987554;28;19948;-73
2022/11/21 00:25:14;;;;;;;;;;;;;;;-144.99;100.00;52578.53;4990441;28;20203;-73
2022/11/21 00:27:42;;;;;;;;;;;;;;;-144.99;100.00;52631.53;4995541;28;19969;-74
2022/11/21 00:30:09;;;;;;;;;;;;;;;-144.99;100.00;52615.25;4992736;28;19985;-74
2022/11/21 00:32:36;;;;;;;;;;;;;;;-144.99;100.00;52603.00;4990279;28;20029;-75
2022/11/21 00:35:02;;;;;;;;;;;;;;;-144.99;100.00;52582.63;4997998;28;20008;-73
2022/11/21 00:37:29;;;;;;;;;;;;;;;-144.99;100.00;52570.38;5001119;28;20546;-72
2022/11/21 00:39:55;;;;;;;;;;;;;;;-144.99;100.00;52586.69;4992915;28;19998;-72
2022/11/21 00:42:22;;;;;;;;;;;;;;;-144.99;100.00;52611.16;4987724;28;20415;-73
2022/11/21 00:44:50;;;;;;;;;;;;;;;-144.99;100.00;52586.69;4990034;28;20004;-73
2022/11/21 00:47:16;;;;;;;;;;;;;;;-144.99;100.00;52613.19;4993613;28;20052;-73
2022/11/21 00:49:43;;;;;;;;;;;;;;;-144.99;100.00;52584.66;4993244;28;19948;-73
2022/11/21 00:52:12;;;;;;;;;;;;;;;-144.99;100.00;52582.63;4758691;28;10000664;-73
2022/11/21 00:54:39;;;;;;;;;;;;;;;-144.99;100.00;52611.16;4997673;28;20589;-72
2022/11/21 00:57:05;;;;;;;;;;;;;;;-144.99;100.00;52603.00;4988455;28;19942;-73
2022/11/21 00:59:32;;;;;;;;;;;;;;;-144.99;100.00;52562.25;5009191;28;19979;-71
2022/11/21 01:02:00;;;;;;;;;;;;;;;-144.99;100.00;52631.53;4994318;28;19941;-74
2022/11/21 01:04:30;;;;;;;;;;;;;;;-144.99;100.00;52594.84;5037673;22;19956;-81
2022/11/21 01:06:56;;;;;;;;;;;;;;;-144.99;100.00;52584.66;5038552;28;19942;-78
2022/11/21 01:09:23;;;;;;;;;;;;;;;-144.99;100.00;52570.38;5065084;28;19927;-81
2022/11/21 01:11:49;;;;;;;;;;;;;;;-144.99;100.00;52611.16;5044970;28;20009;-79
2022/11/21 01:14:16;;;;;;;;;;;;;;;-144.99;100.00;52590.78;5033437;28;19958;-80
2022/11/21 01:16:53;;;;;;;;;;;;;;;-144.99;100.00;52582.63;5028207;28;20387;-74
2022/11/21 01:19:21;;;;;;;;;;;;;;;-144.99;100.00;52582.63;5024589;28;20406;-75
2022/11/21 01:21:48;;;;;;;;;;;;;;;-144.99;100.00;52570.38;5027842;28;20002;-76
2022/11/21 01:24:14;;;;;;;;;;;;;;;-144.99;100.00;52570.38;5029036;28;20045;-74
2022/11/21 01:26:41;;;;;;;;;;;;;;;-144.99;100.00;52607.09;5026034;28;19986;-76
2022/11/21 01:29:07;;;;;;;;;;;;;;;-144.99;100.00;52598.94;5031585;28;19975;-81
2022/11/21 01:31:34;;;;;;;;;;;;;;;-144.99;100.00;52619.31;5052580;28;19956;-80
2022/11/21 01:34:01;;;;;;;;;;;;;;;-144.99;100.00;52631.53;5041732;28;20288;-74
2022/11/21 01:36:29;;;;;;;;;;;;;;;-144.99;100.00;52645.81;5028522;28;19945;-74
2022/11/21 01:38:57;;;;;;;;;;;;;;;-144.99;100.00;52603.00;5020868;28;20080;-75
2022/11/21 01:41:27;;;;;;;;;;;;;;;-144.99;100.00;52586.69;5030345;28;19981;-77
2022/11/21 01:43:54;;;;;;;;;;;;;;;-144.99;100.00;52598.94;5031585;28;21053;-75
2022/11/21 01:46:21;;;;;;;;;;;;;;;-144.99;100.00;52592.81;5026647;28;19959;-74
2022/11/21 01:48:50;;;;;;;;;;;;;;;-144.99;100.00;52627.47;5029750;28;19993;-74
2022/11/21 01:51:18;;;;;;;;;;;;;;;-144.99;100.00;52576.50;5032628;28;20014;-75
2022/11/21 01:53:48;;;;;;;;;;;;;;;-144.99;100.00;52590.78;5032055;28;20061;-73
2022/11/21 01:56:15;;;;;;;;;;;;;;;-144.99;100.00;52572.44;5032622;28;20327;-75
2022/11/21 01:58:43;;;;;;;;;;;;;;;-144.99;100.00;52570.38;5020376;28;19948;-73
2022/11/21 02:01:09;;;;;;;;;;;;;;;-144.99;100.00;52590.78;5034123;28;20015;-75
2022/11/21 02:03:37;;;;;;;;;;;;;;;-144.99;100.00;52607.09;5033554;28;20459;-75
2022/11/21 02:06:05;;;;;;;;;;;;;;;-144.99;100.00;52582.63;5030816;28;19983;-74
2022/11/21 02:08:32;;;;;;;;;;;;;;;-144.99;100.00;52619.31;5032167;28;20029;-74
2022/11/21 02:11:05;;;;;;;;;;;;;;;-144.99;100.00;52605.03;5053962;28;19974;-78
2022/11/21 02:13:32;;;;;;;;;;;;;;;-144.99;100.00;52572.44;5042504;28;20014;-74
2022/11/21 02:15:58;;;;;;;;;;;;;;;-144.99;100.00;52600.97;5027846;28;19936;-73
2022/11/21 02:18:25;;;;;;;;;;;;;;;-144.99;100.00;52643.78;5031172;28;19938;-76
2022/11/21 02:20:57;;;;;;;;;;;;;;;-144.99;100.00;52537.78;5031122;28;20001;-75
2022/11/21 02:23:30;;;;;;;;;;;;;;;-144.99;100.00;52613.19;5025175;28;19945;-74
2022/11/21 02:25:58;;;;;;;;;;;;;;;-144.99;100.00;52619.31;5031431;28;20004;-75
2022/11/21 02:28:25;;;;;;;;;;;;;;;-144.99;100.00;52619.31;5032096;28;19944;-75
2022/11/21 02:30:52;;;;;;;;;;;;;;;-144.99;100.00;52572.44;5032126;28;20076;-74
2022/11/21 02:33:19;;;;;;;;;;;;;;;-144.99;100.00;52552.03;5032221;28;19970;-76
2022/11/21 02:35:55;;;;;;;;;;;;;;;-144.99;100.00;52609.13;5019250;28;19982;-74
2022/11/21 02:38:23;;;;;;;;;;;;;;;-144.99;100.00;52625.44;5031313;28;19947;-74
2022/11/21 02:40:53;;;;;;;;;;;;;;;-144.99;100.00;52615.25;5031433;28;19996;-76
2022/11/21 02:43:23;;;;;;;;;;;;;;;-144.99;100.00;52635.63;5024580;28;19978;-76
2022/11/21 02:45:49;;;;;;;;;;;;;;;-144.99;100.00;52625.44;5024839;28;20400;-74
2022/11/21 02:48:16;;;;;;;;;;;;;;;-144.99;100.00;52619.31;5031275;28;20151;-78
2022/11/21 02:50:43;;;;;;;;;;;;;;;-144.99;100.00;52656.00;5052750;28;20042;-79
2022/11/21 02:53:11;;;;;;;;;;;;;;;-144.99;100.00;52562.25;5042601;28;20321;-77
2022/11/21 02:55:38;;;;;;;;;;;;;;;-144.99;100.00;52627.47;5029028;28;20436;-76
2022/11/21 02:58:05;;;;;;;;;;;;;;;-144.99;100.00;52607.09;5019910;28;20047;-75
2022/11/21 03:00:33;;;;;;;;;;;;;;;-144.99;100.00;52598.94;5023709;28;19985;-76
2022/11/21 03:03:00;;;;;;;;;;;;;;;-144.99;100.00;52586.69;5025444;28;20012;-78
2022/11/21 03:05:26;;;;;;;;;;;;;;;-144.99;100.00;52607.09;5024528;28;20000;-77
2022/11/21 03:07:53;;;;;;;;;;;;;;;-144.99;100.00;52615.25;5030613;28;19988;-76
2022/11/21 03:10:19;;;;;;;;;;;;;;;-144.99;100.00;52603.00;5031180;28;19986;-76
2022/11/21 03:12:46;;;;;;;;;;;;;;;-144.99;100.00;52607.09;5022535;28;19951;-75
2022/11/21 03:15:14;;;;;;;;;;;;;;;-144.99;100.00;52570.38;5026993;28;20066;-75
2022/11/21 03:17:42;;;;;;;;;;;;;;;-144.99;100.00;52582.63;5026452;28;20037;-76
2022/11/21 03:20:09;;;;;;;;;;;;;;;-144.99;100.00;52613.19;5030724;28;20034;-76
2022/11/21 03:22:35;;;;;;;;;;;;;;;-144.99;100.00;52592.81;5027920;28;19943;-73
2022/11/21 03:25:02;;;;;;;;;;;;;;;-144.99;100.00;52574.47;5026599;28;19961;-74
2022/11/21 03:27:28;;;;;;;;;;;;;;;-144.99;100.00;52635.63;5027049;28;19966;-74
2022/11/21 03:29:55;;;;;;;;;;;;;;;-144.99;100.00;52594.84;5047745;28;19947;-77
2022/11/21 03:32:21;;;;;;;;;;;;;;;-144.99;100.00;52627.47;5049883;28;19962;-80
2022/11/21 03:34:49;;;;;;;;;;;;;;;-144.99;100.00;52586.69;5032521;28;20426;-75
2022/11/21 03:37:15;;;;;;;;;;;;;;;-144.99;100.00;52582.63;5023863;28;20040;-75
2022/11/21 03:39:42;;;;;;;;;;;;;;;-144.99;100.00;52590.78;5022703;28;20106;-74
2022/11/21 03:42:08;;;;;;;;;;;;;;;-144.99;100.00;52592.81;5023661;28;19941;-74
2022/11/21 03:44:35;;;;;;;;;;;;;;;-144.99;100.00;52594.84;5024132;28;20015;-76
2022/11/21 03:47:01;;;;;;;;;;;;;;;-144.99;100.00;52582.63;5022292;28;20001;-72
2022/11/21 03:49:27;;;;;;;;;;;;;;;-144.99;100.00;52560.19;5029687;28;19963;-75
2022/11/21 03:51:55;;;;;;;;;;;;;;;-144.99;100.00;52586.69;5026794;28;20513;-73
2022/11/21 03:54:22;;;;;;;;;;;;;;;-144.99;100.00;52600.97;5027432;28;19958;-76
2022/11/21 03:56:48;;;;;;;;;;;;;;;-144.99;100.00;52586.69;5021194;28;19963;-74
2022/11/21 03:59:15;;;;;;;;;;;;;;;-144.99;100.00;52562.25;5018996;28;20025;-76
2022/11/21 04:01:41;;;;;;;;;;;;;;;-144.99;100.00;52566.31;5026331;28;20414;-74
2022/11/21 04:04:07;;;;;;;;;;;;;;;-144.99;100.00;52598.94;5026190;28;20065;-74
2022/11/21 04:06:34;;;;;;;;;;;;;;;-144.99;100.00;52566.31;5026793;28;20039;-74
2022/11/21 04:09:02;;;;;;;;;;;;;;;-144.99;100.00;52570.38;5032615;28;19937;-81
2022/11/21 04:11:28;;;;;;;;;;;;;;;-144.99;100.00;52643.78;5047532;28;19937;-74
2022/11/21 04:13:54;;;;;;;;;;;;;;;-144.99;100.00;52607.09;5024782;28;20522;-74
2022/11/21 04:16:21;;;;;;;;;;;;;;;-144.99;100.00;52578.53;5021027;28;19947;-74
2022/11/21 04:18:47;;;;;;;;;;;;;;;-144.99;100.00;52594.84;5025251;28;19964;-74
2022/11/21 04:21:14;;;;;;;;;;;;;;;-144.99;100.00;52635.63;5027289;28;19982;-76
2022/11/21 04:23:46;;;;;;;;;;;;;;;-144.99;100.00;52588.75;5027486;28;20012;-73
2022/11/21 04:26:14;;;;;;;;;;;;;;;-144.99;100.00;52545.94;5024808;28;19990;-76
2022/11/21 04:28:40;;;;;;;;;;;;;;;-144.99;100.00;52623.38;5029270;28;19944;-74
2022/11/21 04:31:08;;;;;;;;;;;;;;;-144.99;100.00;52611.16;5029107;28;20042;-76
2022/11/21 04:33:34;;;;;;;;;;;;;;;-144.99;100.00;52639.69;5029267;28;20021;-75
2022/11/21 04:36:01;;;;;;;;;;;;;;;-144.99;100.00;52574.47;5026016;28;20032;-76
2022/11/21 04:38:27;;;;;;;;;;;;;;;-144.99;100.00;52619.31;5024987;28;19942;-75
2022/11/21 04:40:54;;;;;;;;;;;;;;;-144.99;100.00;52613.19;5024998;28;20036;-75
2022/11/21 04:43:21;;;;;;;;;;;;;;;-144.99;100.00;52600.97;5023415;28;20018;-74
2022/11/21 04:45:48;;;;;;;;;;;;;;;-144.99;100.00;52603.00;5019793;28;19946;-74
2022/11/21 04:48:14;;;;;;;;;;;;;;;-144.99;100.00;52588.75;5027206;28;19951;-81
2022/11/21 04:50:41;;;;;;;;;;;;;;;-144.99;100.00;52598.94;5044661;28;19964;-81
2022/11/21 04:53:07;;;;;;;;;;;;;;;-144.99;100.00;52611.16;5029440;28;20425;-75
2022/11/21 04:55:33;;;;;;;;;;;;;;;-144.99;100.00;52556.13;5027607;28;19986;-78
2022/11/21 04:58:00;;;;;;;;;;;;;;;-144.99;100.00;52623.38;5022296;28;20063;-76
2022/11/21 05:00:28;;;;;;;;;;;;;;;-144.99;100.00;52598.94;5023906;28;19981;-76
2022/11/21 05:02:54;;;;;;;;;;;;;;;-144.99;100.00;52578.53;5017779;28;19944;-77
2022/11/21 05:05:21;;;;;;;;;;;;;;;-144.99;100.00;52543.91;5014181;28;20452;-76
2022/11/21 05:07:47;;;;;;;;;;;;;;;-144.99;100.00;52607.09;5017650;28;20390;-76
2022/11/21 05:10:14;;;;;;;;;;;;;;;-144.99;100.00;52607.09;5016694;28;19973;-77
2022/11/21 05:15:24;;;;;;;;;;;;;;;-144.99;100.00;52615.25;5014210;28;19971;-76
2022/11/21 05:17:51;;;;;;;;;;;;;;;-144.99;100.00;52623.38;5022032;28;19941;-78
2022/11/21 05:20:18;;;;;;;;;;;;;;;-144.99;100.00;52562.25;5013484;28;19968;-78
2022/11/21 05:22:48;;;;;;;;;;;;;;;-144.99;100.00;52603.00;5026173;28;20415;-75
2022/11/21 05:25:15;;;;;;;;;;;;;;;-144.99;100.00;52611.16;5018441;28;20040;-75
2022/11/21 05:27:41;;;;;;;;;;;;;;;-144.99;100.00;52603.00;5021494;28;20026;-75
2022/11/21 05:30:08;;;;;;;;;;;;;;;-144.99;100.00;52647.84;5023381;28;19944;-76
2022/11/21 05:32:35;;;;;;;;;;;;;;;-144.99;100.00;52639.69;5021546;28;20045;-76
2022/11/21 05:35:02;;;;;;;;;;;;;;;-144.99;100.00;52603.00;5023111;28;20055;-75
2022/11/21 05:37:29;;;;;;;;;;;;;;;-144.99;100.00;52611.16;5028156;28;20437;-75
2022/11/21 05:39:55;;;;;;;;;;;;;;;-144.99;100.00;52607.09;5022590;28;20359;-74
2022/11/21 05:43:44;;;;;;;;;;;;;;;-144.99;100.00;52554.09;5022589;28;19979;-75
2022/11/21 05:45:08;;;;;;;;;;;;;;;-144.99;100.00;52582.63;5018398;28;20470;-74
2022/11/21 05:47:34;;;;;;;;;;;;;;;-144.99;100.00;52623.38;5020349;28;19946;-75
2022/11/21 05:50:01;;;;;;;;;;;;;;;-144.99;100.00;52631.53;5022292;28;19991;-76
2022/11/21 05:52:29;;;;;;;;;;;;;;;-144.99;100.00;52598.94;5039403;28;19954;-76
2022/11/21 05:54:55;;;;;;;;;;;;;;;-144.99;100.00;52631.53;5028378;28;19995;-76
2022/11/21 05:57:22;;;;;;;;;;;;;;;-144.99;100.00;52615.25;5021650;28;20035;-73
2022/11/21 05:59:48;;;;;;;;;;;;;;;-144.99;100.00;52619.31;5013669;28;19943;-76
2022/11/21 06:04:58;;;;;;;;;;;;;;;-144.99;100.00;52651.94;4323043;28;10000749;-77
2022/11/21 06:07:25;;;;;;;;;;;;;;;-144.99;100.00;52611.16;5022626;28;20060;-79
2022/11/21 06:09:53;;;;;;;;;;;;;;;-144.99;100.00;52570.38;5031718;28;19954;-76
2022/11/21 06:12:19;;;;;;;;;;;;;;;-144.99;100.00;52598.94;5025063;28;19948;-77
2022/11/21 06:14:46;;;;;;;;;;;;;;;-144.99;100.00;52607.09;5020092;28;20433;-79
2022/11/21 06:17:12;;;;;;;;;;;;;;;-144.99;100.00;52603.00;5027198;28;20051;-77
2022/11/21 06:19:38;;;;;;;;;;;;;;;-144.99;100.00;52586.69;5028453;28;20237;-76
2022/11/21 06:22:05;;;;;;;;;;;;;;;-144.99;100.00;52598.94;5024508;28;19943;-76
2022/11/21 06:24:31;;;;;;;;;;;;;;;-144.99;100.00;52598.94;5028738;28;20002;-77
2022/11/21 06:26:59;;;;;;;;;;;;;;;-144.99;100.00;52603.00;5028037;28;19939;-77
2022/11/21 06:29:26;;;;;;;;;;;;;;;-144.99;100.00;52627.47;5028132;28;20065;-76
2022/11/21 06:31:54;;;;;;;;;;;;;;;-144.99;100.00;52572.44;5027552;28;20439;-76
2022/11/21 06:34:21;;;;;;;;;;;;;;;-144.99;100.00;52611.16;5023730;28;20056;-76
2022/11/21 06:36:48;;;;;;;;;;;;;;;-144.99;100.00;52641.72;5023979;28;20030;-77
2022/11/21 06:39:15;;;;;;;;;;;;;;;-144.99;100.00;52603.00;5028145;28;19946;-77
2022/11/21 06:41:41;;;;;;;;;;;;;;;-144.99;100.00;52596.88;5030426;28;20070;-78
2022/11/21 06:44:09;;;;;;;;;;;;;;;-144.99;100.00;52611.16;5025493;28;20041;-77
2022/11/21 06:46:35;;;;;;;;;;;;;;;-144.99;100.00;52598.94;5023385;28;20052;-77
2022/11/21 06:49:02;;;;;;;;;;;;;;;-144.99;100.00;52586.69;5030042;28;20054;-76
2022/11/21 06:51:28;;;;;;;;;;;;;;;-144.99;100.00;52611.16;5030168;28;19983;-75
2022/11/21 06:53:56;;;;;;;;;;;;;;;-144.99;100.00;52590.78;5025838;28;20053;-77
2022/11/21 06:56:22;;;;;;;;;;;;;;;-144.99;100.00;52582.63;5029396;28;20171;-78
2022/11/21 06:58:49;;;;;;;;;;;;;;;-144.99;100.00;52623.38;5025831;28;20026;-78
2022/11/21 07:01:17;;;;;;;;;;;;;;;-144.99;100.00;52603.00;5024205;28;20004;-77
2022/11/21 07:03:44;;;;;;;;;;;;;;;-144.99;100.00;52562.25;5023983;28;20252;-78
2022/11/21 07:06:10;;;;;;;;;;;;;;;-144.99;100.00;52529.63;5025215;28;20714;-78
2022/11/21 07:08:39;;;;;;;;;;;;;;;-144.99;100.00;52611.16;5025043;28;20032;-78
2022/11/21 07:11:06;;;;;;;;;;;;;;;-144.99;100.00;52550.00;5027782;28;19941;-78
2022/11/21 07:13:32;;;;;;;;;;;;;;;-144.99;100.00;52611.16;5022114;28;20037;-74
2022/11/21 07:16:00;;;;;;;;;;;;;;;-144.99;100.00;52600.97;5028047;28;20031;-78
2022/11/21 07:18:28;;;;;;;;;;;;;;;-144.99;100.00;52558.16;5023712;28;20229;-76
2022/11/21 07:20:57;;;;;;;;;;;;;;;-144.99;100.00;52639.69;5028188;28;20447;-78
2022/11/21 07:23:24;;;;;;;;;;;;;;;-144.99;100.00;52582.63;5029258;28;19994;-78
2022/11/21 07:25:50;;;;;;;;;;;;;;;-144.99;100.00;52568.34;5019851;28;19972;-77
2022/11/21 07:28:16;;;;;;;;;;;;;;;-144.99;100.00;52562.25;5038515;28;19960;-78
2022/11/21 07:30:43;;;;;;;;;;;;;;;-144.99;100.00;52590.78;5031671;28;20479;-77
2022/11/21 07:33:09;;;;;;;;;;;;;;;-144.99;100.00;52598.94;5027751;28;19990;-78
2022/11/21 07:35:37;;;;;;;;;;;;;;;-144.99;100.00;52615.25;5027918;28;19990;-77
2022/11/21 07:38:04;;;;;;;;;;;;;;;-144.99;100.00;52615.25;5027338;28;19995;-78
2022/11/21 07:40:33;;;;;;;;;;;;;;;-144.99;100.00;52607.09;5025222;28;19942;-77
2022/11/21 07:43:00;;;;;;;;;;;;;;;-144.99;100.00;52627.47;5026662;28;20417;-78
2022/11/21 07:45:27;;;;;;;;;;;;;;;-144.99;100.00;52574.47;5020278;28;19957;-77
2022/11/21 07:47:57;;;;;;;;;;;;;;;-144.99;100.00;52603.00;5026766;28;20164;-76
2022/11/21 07:50:23;;;;;;;;;;;;;;;-144.99;100.00;52590.78;5025130;28;20010;-77
2022/11/21 07:52:51;;;;;;;;;;;;;;;-144.99;100.00;52607.09;5115058;23;20470;-71
2022/11/21 07:55:18;;;;;;;;;;;;;;;-144.99;100.00;52588.75;5079059;28;20098;-71
2022/11/21 07:57:44;;;;;;;;;;;;;;;-144.99;100.00;52582.63;5055364;28;19959;-73
2022/11/21 08:00:12;;;;;;;;;;;;;;;-144.99;100.00;52594.84;4708864;28;9999695;-72
2022/11/21 08:02:38;;;;;;;;;;;;;;;-144.99;100.00;52580.59;5076389;28;19963;-72
2022/11/21 08:05:05;;;;;;;;;;;;;;;-144.99;100.00;52574.47;5070005;28;19992;-73
2022/11/21 08:07:31;;;;;;;;;;;;;;;-144.99;100.00;52570.38;5074598;28;19946;-72
2022/11/21 08:09:59;;;;;;;;;;;;;;;-144.99;100.00;52560.19;5072288;28;19954;-72
2022/11/21 08:12:26;;;;;;;;;;;;;;;-144.99;100.00;52554.09;5073730;28;20058;-72
2022/11/21 08:14:52;;;;;;;;;;;;;;;-144.99;100.00;52578.53;5069385;28;20239;-73
2022/11/21 08:17:19;;;;;;;;;;;;;;;-144.99;100.00;52562.25;5058942;28;19988;-71
2022/11/21 08:19:45;;;;;;;;;;;;;;;-144.99;100.00;52605.03;5057646;28;20388;-73
2022/11/21 08:22:12;;;;;;;;;;;;;;;-144.99;100.00;52574.47;5069277;28;19982;-75
2022/11/21 08:24:39;;;;;;;;;;;;;;;-144.99;100.00;52554.09;5074674;28;19987;-75
2022/11/21 08:27:09;;;;;;;;;;;;;;;-144.99;99.74;52570.38;5064615;28;20190;-73
2022/11/21 08:29:35;;;;;;;;;;;;;;;-144.99;99.47;52603.00;5062197;28;19967;-74
2022/11/21 08:32:02;;;;;;;;;;;;;;;-144.99;98.49;52592.81;5063040;28;20094;-73
2022/11/21 08:34:31;;;;;;;;;;;;;;;-144.99;98.97;52541.84;5062193;28;19990;-73
2022/11/21 08:36:58;;;;;;;;;;;;;;;-144.99;95.01;52578.53;5051697;28;19945;-73
2022/11/21 08:39:25;;;;;;;;;;;;;;;-144.99;94.33;52584.66;5063890;28;19938;-73
2022/11/21 08:42:03;;;;;;;;;;;;;;;-144.99;93.06;52586.69;5056343;28;20204;-74
2022/11/21 08:44:32;;;;;;;;;;;;;;;-144.99;92.13;52578.53;5050159;28;20049;-74
2022/11/21 08:46:58;;;;;;;;;;;;;;;-144.99;92.81;52562.25;5068438;28;20050;-74
2022/11/21 08:49:25;;;;;;;;;;;;;;;-144.99;90.76;52566.31;5051666;28;19986;-73
2022/11/21 08:51:51;;;;;;;;;;;;;;;-144.99;89.30;52509.25;5053745;28;19963;-74
2022/11/21 08:54:18;;;;;;;;;;;;;;;-144.99;86.60;52586.69;5057261;28;20731;-71
2022/11/21 08:56:45;;;;;;;;;;;;;;;-144.99;84.79;52564.28;5056001;28;19947;-73
2022/11/21 08:59:12;;;;;;;;;;;;;;;-144.99;83.57;52529.63;5051459;28;19994;-72
2022/11/21 09:01:40;;;;;;;;;;;;;;;-144.99;82.20;52550.00;5066173;28;19967;-73
2022/11/21 09:04:06;;;;;;;;;;;;;;;-144.99;78.42;52533.69;5059042;28;19942;-73
2022/11/21 09:06:33;;;;;;;;;;;;;;;-144.99;79.67;52582.63;5057888;28;19997;-73
2022/11/21 09:09:00;;;;;;;;;;;;;;;-144.99;79.48;52580.59;5053858;28;20024;-73
2022/11/21 09:11:27;;;;;;;;;;;;;;;-144.99;77.10;52521.47;5056750;28;20062;-73
2022/11/21 09:19:24;;;;;;;;;;;;;;;-144.99;77.79;52527.59;5047444;28;20358;-72
2022/11/21 09:21:51;;;;;;;;;;;;;;;-144.99;76.25;52539.81;5058179;28;19962;-73
2022/11/21 09:24:18;;;;;;;;;;;;;;;-144.99;76.50;52537.78;5066892;28;20003;-72
2022/11/21 09:26:44;;;;;;;;;;;;;;;-144.99;77.09;52488.84;5065332;28;19948;-73
2022/11/21 09:29:13;;;;;;;;;;;;;;;-144.99;74.27;52523.50;5054402;28;20575;-72
2022/11/21 09:31:40;;;;;;;;;;;;;;;-144.99;73.24;52533.69;5065676;28;19957;-75
2022/11/21 09:34:07;;;;;;;;;;;;;;;-144.99;73.91;52539.81;5057443;28;20068;-72
2022/11/21 09:36:35;;;;;;;;;;;;;;;-144.99;70.55;52545.94;5059867;28;19950;-72
2022/11/21 09:39:01;;;;;;;;;;;;;;;-144.99;70.24;52537.78;5064045;28;20001;-73
2022/11/21 09:44:20;;;;;;;;;;;;;;;-144.99;66.30;52525.56;5064772;28;20087;-72
2022/11/21 09:46:47;;;;;;;;;;;;;;;-144.99;64.11;52497.00;5060281;28;20331;-72
2022/11/21 09:49:14;;;;;;;;;;;;;;;-144.99;62.21;52537.78;5062014;28;20033;-72
2022/11/21 09:51:43;;;;;;;;;;;;;;;-144.99;61.67;52509.25;5061113;28;20344;-72
2022/11/21 09:54:15;;;;;;;;;;;;;;;-144.99;60.49;52517.41;5060191;28;19966;-73
2022/11/21 09:56:42;;;;;;;;;;;;;;;-144.99;59.51;52488.84;5069631;28;19947;-72
2022/11/21 09:59:17;;;;;;;;;;;;;;;-144.99;58.44;52515.34;5067947;28;20026;-72
2022/11/21 10:01:44;;;;;;;;;;;;;;;-144.99;57.98;52488.84;5061581;28;20000;-72
2022/11/21 10:04:10;;;;;;;;;;;;;;;-144.99;55.75;52452.16;5058230;28;19945;-72
2022/11/21 10:06:42;;;;;;;;;;;;;;;-144.99;55.98;52472.56;5068274;28;20050;-72
2022/11/21 10:09:18;;;;;;;;;;;;;;;-144.99;55.06;52444.03;5050471;28;20422;-73
2022/11/21 10:14:45;;;;;;;;;;;;;;;-144.99;51.41;52391.03;5063405;28;20065;-72
2022/11/21 10:17:16;;;;;;;;;;;;;;;-144.99;50.73;52421.59;5058206;28;20010;-73
2022/11/21 10:19:50;;;;;;;;;;;;;;;-144.99;49.69;52372.69;5058492;28;19941;-72
2022/11/21 10:22:29;;;;;;;;;;;;;;;-144.99;49.00;52378.78;5060308;28;20009;-73
2022/11/21 10:24:59;;;;;;;;;;;;;;;-144.99;49.21;52391.03;5064837;28;19941;-72
2022/11/21 10:27:30;;;;;;;;;;;;;;;-144.99;48.29;52364.53;5067706;28;19945;-72
2022/11/21 10:30:00;;;;;;;;;;;;;;;-144.99;47.57;52374.72;5059355;28;19938;-72
2022/11/21 10:32:32;;;;;;;;;;;;;;;-144.99;48.06;52354.34;5060983;28;20028;-72
2022/11/21 10:34:59;;;;;;;;;;;;;;;-144.99;46.63;52350.25;5059002;28;20425;-71
2022/11/21 10:37:30;;;;;;;;;;;;;;;-144.99;44.79;52350.25;5063102;28;19955;-72
2022/11/21 10:40:03;;;;;;;;;;;;;;;-144.99;45.29;52366.56;5053555;28;20260;-72
2022/11/21 10:42:33;;;;;;;;;;;;;;;-144.99;45.37;52350.25;5062072;28;20400;-72
2022/11/21 10:45:18;;;;;;;;;;;;;;;-144.99;46.44;52331.91;5054746;28;20320;-72
2022/11/21 10:47:46;;;;;;;;;;;;;;;-144.99;45.60;52346.19;5057879;28;20649;-76
2022/11/21 10:50:18;;;;;;;;;;;;;;;-144.99;45.73;52313.56;5060870;28;20043;-73
2022/11/21 10:52:48;;;;;;;;;;;;;;;-144.99;45.60;52338.03;5055220;28;20173;-72
2022/11/21 10:55:16;;;;;;;;;;;;;;;-144.99;44.06;52280.97;5051720;28;19959;-73
2022/11/21 10:57:45;;;;;;;;;;;;;;;-144.99;43.41;52309.50;5059692;28;19999;-73
2022/11/21 11:00:18;;;;;;;;;;;;;;;-144.99;43.16;52317.66;5058405;28;19964;-74
2022/11/21 11:02:59;;;;;;;;;;;;;;;-144.99;42.62;52276.88;5052926;28;19940;-73
2022/11/21 11:05:26;;;;;;;;;;;;;;;-144.99;40.83;52268.72;5065365;28;19946;-73
2022/11/21 11:08:00;;;;;;;;;;;;;;;-144.99;40.32;52252.44;5057444;28;20003;-73
2022/11/21 11:10:28;;;;;;;;;;;;;;;-144.99;40.11;52287.06;5057925;28;19987;-72
2022/11/21 11:15:51;;;;;;;;;;;;;;;-144.99;40.59;52321.72;5068893;28;19969;-73
2022/11/21 11:18:19;;;;;;;;;;;;;;;-144.99;40.91;52270.78;5055481;28;20351;-72
2022/11/21 11:20:46;;;;;;;;;;;;;;;-144.99;40.99;52317.66;5056251;28;19928;-72
2022/11/21 11:23:16;;;;;;;;;;;;;;;-144.99;40.43;52264.66;5060113;28;19982;-72
2022/11/21 11:25:48;;;;;;;;;;;;;;;-144.99;40.18;52285.03;5060363;28;19949;-74
2022/11/21 11:28:14;;;;;;;;;;;;;;;-144.99;40.33;52297.25;5057946;28;20366;-73
2022/11/21 11:30:41;;;;;;;;;;;;;;;-144.99;40.07;52305.41;5054232;28;19965;-73
2022/11/21 11:33:23;;;;;;;;;;;;;;;-144.99;39.21;52276.88;5061234;28;19953;-73
2022/11/21 11:35:49;;;;;;;;;;;;;;;-144.99;39.39;52358.41;5059979;28;20101;-73
2022/11/21 11:38:17;;;;;;;;;;;;;;;-144.99;40.36;52338.03;5058318;28;20013;-71
2022/11/21 11:40:45;;;;;;;;;;;;;;;-144.99;40.22;52260.56;5053726;28;20461;-73
2022/11/21 11:50:09;;;;;;;;;;;;;;;-144.99;45.57;52368.59;4997899;28;20236;-72
2022/11/21 11:52:24;;;;;;;;;;;;;;;-144.99;45.76;52417.53;4996214;28;20796;-72
2022/11/21 11:54:56;;;;;;;;;;;;;;;-144.99;45.19;52340.06;5026823;28;20014;-73
2022/11/21 11:57:22;;;;;;;;;;;;;;;-144.99;43.89;52305.41;5050353;28;19947;-73
2022/11/21 11:59:51;;;;;;;;;;;;;;;-144.99;41.33;52285.03;5057064;28;20041;-73
2022/11/21 12:02:21;;;;;;;;;;;;;;;-144.99;40.49;52270.78;5052091;28;20378;-73
2022/11/21 12:04:50;;;;;;;;;;;;;;;-144.99;41.04;52301.34;5063295;28;19940;-73
2022/11/21 12:07:19;;;;;;;;;;;;;;;-144.99;40.57;52305.41;5063517;28;20037;-72
2022/11/21 12:09:50;;;;;;;;;;;;;;;-144.99;40.72;52309.50;5058233;28;19947;-72
2022/11/21 12:12:23;;;;;;;;;;;;;;;-144.99;40.47;52307.47;5069521;28;20007;-72
2022/11/21 12:17:46;;;;;;;;;;;;;;;-144.99;40.16;52285.03;5059960;28;20462;-73
2022/11/21 12:20:15;;;;;;;;;;;;;;;-144.99;39.39;52297.25;5054139;28;20005;-72
2022/11/21 12:22:42;;;;;;;;;;;;;;;-144.99;39.56;52272.81;5059882;28;19955;-72
2022/11/21 12:25:11;;;;;;;;;;;;;;;-144.99;39.43;52299.31;5059928;28;19932;-73
2022/11/21 12:27:40;;;;;;;;;;;;;;;-144.99;38.74;52329.88;5067158;28;19924;-71
2022/11/21 12:30:21;;;;;;;;;;;;;;;-144.99;39.05;52280.97;5050321;28;19987;-72
2022/11/21 12:32:56;;;;;;;;;;;;;;;-144.99;38.14;52295.22;5043870;28;20069;-74
2022/11/21 12:35:32;;;;;;;;;;;;;;;-144.99;37.43;52276.88;5063864;28;19963;-73
2022/11/21 12:38:03;;;;;;;;;;;;;;;-144.99;37.12;52240.19;5055056;28;20306;-73
2022/11/21 12:40:36;;;;;;;;;;;;;;;-144.99;36.65;52293.19;5058475;28;19941;-73
2022/11/21 12:43:09;;;;;;;;;;;;;;;-144.99;37.29;52268.72;5056476;28;19990;-72
2022/11/21 12:45:38;;;;;;;;;;;;;;;-144.99;38.19;52346.19;5047209;28;19989;-72
2022/11/21 12:56:52;;;;;;;;;;;;;;;-144.99;38.81;52317.66;5049360;28;20311;-73
2022/11/21 12:59:19;;;;;;;;;;;;;;;-144.99;38.84;52358.41;5052885;28;19973;-72
2022/11/21 13:01:51;;;;;;;;;;;;;;;-144.99;38.54;52376.75;5058658;28;19974;-73